الصفحة الرئيسية
METAR-TAF:

METAR-TAF

مطار :

Toamasina, مدغشقر

دائرة عرض: 18-07S, خط طول: 049-24E, ارتفاع: 5 متر

مراقبة الطقس الحالي

تاريخ ووقت الإصدار 1ساعة و 8 دقيقة قبل الساعة 20:00UTC
ريح 12 عقدة من الغرب/الجنوب الغربي
درجة الحرارة 18°درجة مئوية
الرطوبة 94%
ضغط 1023 hPa
الرؤية 10 كم أو أكثر
غيوم قليلة على ارتفاع 700 قدم
غيوم متفرقة على ارتفاع 1700 قدم
غيوم مفككة على ارتفاع 3300 قدم
زخات في الجوار

METAR: FMMT 252000Z 24012KT 9999 VCSH FEW007 SCT017 BKN033 18/17 Q1023

زمن: 00:08 (21:08 UTC)

توقعات

تاريخ ووقت الإصدار 4ساعات و 8 دقيقة قبل الساعة 17:00UTC
التوقعات صالحة من25 الساعة 18 UTC إلى 26 الساعة 18 UTC
ريح 12 عقدة من الجنوب الغربي
الرؤية: 9000 متر
غيوم قليلة على ارتفاع 700 قدم
غيوم متفرقة على ارتفاع 1700 قدم
غيوم مفككة على ارتفاع 3300 قدم
مؤقت
من 25 الساعة 18 UTC إلى 26 الساعة 18 UTC
الرؤية: 4000 متر
زخات من المطر

TAF: FMMT 251700Z 2518/2618 22012KT 9000 FEW007 SCT017 BKN033 TEMPO 2518/2618 4000 SHRA

أرصاد الطقس والتوقعات من أكثر من 4000 مطار (تقارير الطقس للمطار METAR والتنبؤ بالطقس بالمطارTAF).

المحطات المتاحة هي النقط الصفراء والحمراء على الخريطة.

حرك المؤشر فوق النقطة لمعرفة اسم المحطة.

ثم انقر لمعرفة أرصاد وتوقعات الطقس.

لتغيير الخارطة: اضغط على الأزرار الخضراء مع رمز الصليب الأسود للتكبير. على الزر الأخضر مع شرطة للتصغير، أو على الأسهم الخضراء للخرائط المجاورة.


METAR-TAF: